Muir Army Air Field (Fort Indiantown Gap) Airport Fort Indiantown Gap(Annville) US
ICAO: KMUI
IATA: MUI
Category: Medium
Scheduled Services: No

Elevation: 488 ft
TransAlt. 18000 ft.

Airport Communications:
HARRISBURG APP/DEP:118.25
CTAF:126.2
GND:121.625
FLT FLW:40.9
ARNG OPS:49.95
TWR:126.2

KMUI Zoom In..

If Map Doesn't Load, Click Here

Runways:

(A) RW 07 length 3978 ft width 98 ft
---- / hdg 70

(B) RW 25 length 3978 ft width 98 ft
---- / hdg 250

Location; KMUI
Day. 23 / Time. 21.56 Zulu
* Altimeter: 30.23
* Temperature: 17° c. 62.6°f.
* Wind from: 100° Speed 03 kn.
Dewpoint: 14° c.
Visibility: 10 Statute Miles.
Clouds: Few 1800 ft.
Clouds: Overcast 3600 ft.

KMUI 232156Z AUTO 10003KT 10SM FEW018 OVC036 17/14 A3023 RMK AO2 SLP240 T01710136 $


Wind From 100°
Speed 03 kn.

 
 
jpsmedia.com for Web Design worldairports.se 2018   terms of use